Time;durP1;ratioP1;P1;durP2;ratioP2;P2;SDS_P1;SDS_P2;PMS_P1;PMS_P2;Temp;Humidity;BMP_temperature;BMP_pressure;BME280_temperature;BME280_humidity;BME280_pressure;Samples;Min_cycle;Max_cycle;Signal;HPM_P1;HPM_P2
2022/11/17 00:02:13;;;;;;;1064.27;207.30;;;9.40;99.90;;;;;;5068612;28;20684;-51
2022/11/17 00:04:44;;;;;;;1999.90;453.83;;;9.40;99.90;;;;;;5068638;28;20232;-51
2022/11/17 00:07:12;;;;;;;1999.90;429.43;;;9.50;99.90;;;;;;5068154;28;20322;-51
2022/11/17 00:09:41;;;;;;;605.80;117.90;;;9.50;99.90;;;;;;5055336;28;20242;-51
2022/11/17 00:14:59;;;;;;;1999.90;402.20;;;9.70;99.90;;;;;;5068930;28;20205;-51
2022/11/17 00:17:27;;;;;;;1999.90;417.30;;;9.70;99.90;;;;;;5068845;28;20297;-51
2022/11/17 00:22:42;;;;;;;1999.90;580.87;;;9.80;99.90;;;;;;5063588;28;20315;-52
2022/11/17 00:25:10;;;;;;;1634.20;293.83;;;9.70;99.90;;;;;;5068484;28;20292;-52
2022/11/17 00:27:38;;;;;;;1999.90;463.00;;;9.70;99.90;;;;;;5068832;28;20217;-52
2022/11/17 00:30:08;;;;;;;1538.13;263.50;;;9.60;99.90;;;;;;5068142;28;20294;-51
2022/11/17 00:35:23;;;;;;;248.30;61.73;;;9.70;99.90;;;;;;5069735;28;20338;-51
2022/11/17 00:40:33;;;;;;;717.90;108.83;;;9.60;99.90;;;;;;5071869;28;20597;-51
2022/11/17 00:43:01;;;;;;;226.23;78.77;;;9.60;99.90;;;;;;5070949;28;20351;-51
2022/11/17 00:45:29;;;;;;;738.83;153.73;;;9.60;99.90;;;;;;5069540;28;20239;-51
2022/11/17 00:47:57;;;;;;;221.10;63.17;;;9.60;99.90;;;;;;5072801;28;20296;-51
2022/11/17 00:50:26;;;;;;;363.07;71.87;;;9.60;99.90;;;;;;5071772;28;20739;-52
2022/11/17 00:52:54;;;;;;;1999.90;474.17;;;9.60;99.90;;;;;;5071936;28;20316;-52
2022/11/17 00:55:22;;;;;;;209.03;72.87;;;9.50;99.90;;;;;;5072039;28;20651;-52
2022/11/17 00:57:50;;;;;;;755.67;172.63;;;9.60;99.90;;;;;;5072054;28;20204;-51
2022/11/17 01:00:20;;;;;;;367.17;73.67;;;9.60;99.90;;;;;;5071878;28;20297;-51
2022/11/17 01:02:48;;;;;;;757.17;186.90;;;9.60;99.90;;;;;;5071446;28;20599;-51
2022/11/17 01:05:16;;;;;;;687.37;181.00;;;9.60;99.90;;;;;;5071930;28;20299;-52
2022/11/17 01:07:46;;;;;;;551.63;145.80;;;9.60;99.90;;;;;;5069391;28;20605;-51
2022/11/17 01:10:14;;;;;;;164.53;60.67;;;9.60;99.90;;;;;;5072007;28;20296;-52
2022/11/17 01:12:42;;;;;;;1945.87;244.60;;;9.60;99.90;;;;;;5070845;28;20246;-51
2022/11/17 01:15:10;;;;;;;1648.97;254.57;;;9.60;99.90;;;;;;5071416;28;20209;-51
2022/11/17 01:17:38;;;;;;;980.43;225.63;;;9.50;99.90;;;;;;5072256;28;20280;-52
2022/11/17 01:20:08;;;;;;;945.00;162.47;;;9.50;99.90;;;;;;5071026;28;20296;-51
2022/11/17 01:22:36;;;;;;;601.07;108.33;;;9.50;99.90;;;;;;5071034;28;20247;-52
2022/11/17 01:25:07;;;;;;;1999.90;511.67;;;9.50;99.90;;;;;;5071542;28;20209;-51
2022/11/17 01:27:35;;;;;;;609.80;111.03;;;9.60;99.90;;;;;;5063947;28;20217;-51
2022/11/17 01:30:04;;;;;;;1999.90;604.03;;;9.60;99.90;;;;;;5065941;28;20312;-51
2022/11/17 01:32:32;;;;;;;1999.90;636.83;;;9.60;99.90;;;;;;5070876;28;20242;-51
2022/11/17 01:35:00;;;;;;;1086.30;187.93;;;9.60;99.90;;;;;;5069165;28;20296;-52
2022/11/17 01:37:28;;;;;;;1999.90;335.63;;;9.60;99.90;;;;;;5070923;28;20666;-51
2022/11/17 01:39:56;;;;;;;1972.97;324.20;;;9.60;99.90;;;;;;5065108;28;20292;-51
2022/11/17 01:42:26;;;;;;;1860.20;305.87;;;9.50;99.90;;;;;;5068234;28;20297;-52
2022/11/17 01:45:04;;;;;;;1999.90;567.10;;;9.50;99.90;;;;;;5071595;28;20205;-53
2022/11/17 01:47:37;;;;;;;1999.90;479.00;;;9.50;99.90;;;;;;5070265;28;20248;-51
2022/11/17 01:50:13;;;;;;;1999.90;672.00;;;9.50;99.90;;;;;;5062015;28;20284;-52
2022/11/17 01:52:42;;;;;;;1999.90;663.53;;;9.50;99.90;;;;;;5070857;28;20343;-51
2022/11/17 01:55:11;;;;;;;1999.90;483.57;;;9.50;99.90;;;;;;5070931;28;20228;-51
2022/11/17 01:57:47;;;;;;;1261.10;217.77;;;9.50;99.90;;;;;;5070539;28;20197;-51
2022/11/17 02:00:16;;;;;;;1910.57;416.30;;;9.40;99.90;;;;;;5071204;28;20207;-52
2022/11/17 02:02:46;;;;;;;1999.90;566.03;;;9.40;99.90;;;;;;5070352;28;20234;-51
2022/11/17 02:05:31;;;;;;;1999.90;781.10;;;9.40;99.90;;;;;;5070267;28;20559;-51
2022/11/17 02:08:03;;;;;;;1999.90;681.73;;;9.40;99.90;;;;;;5070551;28;20303;-51
2022/11/17 02:10:32;;;;;;;740.53;140.03;;;9.40;99.90;;;;;;5063821;28;20214;-51
2022/11/17 02:13:02;;;;;;;640.37;116.73;;;9.40;99.90;;;;;;5070365;28;20595;-51
2022/11/17 02:15:30;;;;;;;989.53;174.67;;;9.30;99.90;;;;;;5070360;28;20212;-51
2022/11/17 02:17:59;;;;;;;1999.90;386.93;;;9.30;99.90;;;;;;5070696;28;20579;-51
2022/11/17 02:20:41;;;;;;;1999.90;625.93;;;9.40;99.90;;;;;;5070632;28;20648;-51
2022/11/17 02:23:36;;;;;;;1999.90;748.23;;;9.30;99.90;;;;;;5069981;28;20278;-51
2022/11/17 02:26:30;;;;;;;1999.90;852.53;;;9.40;99.90;;;;;;5070645;28;20205;-51
2022/11/17 02:29:06;;;;;;;1999.90;673.67;;;9.40;99.90;;;;;;5064107;28;20215;-51
2022/11/17 02:31:41;;;;;;;1999.90;538.13;;;9.40;99.90;;;;;;5070188;28;20664;-51
2022/11/17 02:34:21;;;;;;;1999.90;927.47;;;9.30;99.90;;;;;;5070484;28;20311;-52
2022/11/17 02:36:57;;;;;;;1999.90;585.47;;;9.40;99.90;;;;;;5070271;28;20288;-51
2022/11/17 02:39:31;;;;;;;1934.77;247.13;;;9.40;99.90;;;;;;5070799;28;20246;-51
2022/11/17 02:42:09;;;;;;;1999.90;577.33;;;9.30;99.90;;;;;;5070034;28;20310;-51
2022/11/17 02:44:42;;;;;;;1999.90;596.50;;;9.30;99.90;;;;;;5070430;28;20251;-51
2022/11/17 02:47:14;;;;;;;1999.90;834.10;;;9.40;99.90;;;;;;5064301;28;20305;-52
2022/11/17 02:49:46;;;;;;;1999.90;474.30;;;9.40;99.90;;;;;;5070027;28;20754;-51
2022/11/17 02:52:16;;;;;;;1999.90;619.20;;;9.50;99.90;;;;;;5069958;28;20229;-51
2022/11/17 02:54:44;;;;;;;1894.77;391.17;;;9.50;99.90;;;;;;5070365;28;20257;-51
2022/11/17 02:57:27;;;;;;;1999.90;809.07;;;9.50;99.90;;;;;;5070018;28;20239;-51
2022/11/17 02:59:58;;;;;;;1999.90;616.70;;;9.50;99.90;;;;;;5069376;28;20288;-52
2022/11/17 03:02:57;;;;;;;1999.90;566.83;;;9.50;99.90;;;;;;5069799;28;20205;-51
2022/11/17 03:05:31;;;;;;;687.67;146.93;;;9.50;99.90;;;;;;5057523;28;20288;-51
2022/11/17 03:08:13;;;;;;;1999.90;756.33;;;9.40;99.90;;;;;;5070221;28;20674;-51
2022/11/17 03:10:51;;;;;;;1999.90;527.17;;;9.40;99.90;;;;;;5069911;28;20206;-51
2022/11/17 03:13:25;;;;;;;1999.90;732.90;;;9.40;99.90;;;;;;5069210;28;20311;-51
2022/11/17 03:16:04;;;;;;;1999.90;803.17;;;9.40;99.90;;;;;;5069463;28;20298;-51
2022/11/17 03:18:42;;;;;;;1999.90;397.83;;;9.50;99.90;;;;;;5069558;28;20276;-51
2022/11/17 03:21:16;;;;;;;1999.90;550.37;;;9.40;99.90;;;;;;5069644;28;20233;-51
2022/11/17 03:23:47;;;;;;;1952.87;371.03;;;9.50;99.90;;;;;;5053767;28;20307;-51
2022/11/17 03:26:20;;;;;;;1831.93;350.27;;;9.40;99.90;;;;;;5062193;28;20687;-52
2022/11/17 03:28:49;;;;;;;1999.90;399.30;;;9.40;99.90;;;;;;5069759;28;20236;-51
2022/11/17 03:31:21;;;;;;;1487.20;195.50;;;9.50;99.90;;;;;;5069133;28;20296;-52
2022/11/17 03:33:50;;;;;;;1999.90;544.87;;;9.40;99.90;;;;;;5068029;28;20324;-51
2022/11/17 03:36:24;;;;;;;1999.90;485.07;;;9.40;99.90;;;;;;5068713;28;20617;-51
2022/11/17 03:38:58;;;;;;;1999.90;570.93;;;9.30;99.90;;;;;;5069289;28;20284;-51
2022/11/17 03:41:30;;;;;;;1122.90;208.50;;;9.30;99.90;;;;;;5069170;28;20287;-52
2022/11/17 03:44:00;;;;;;;556.83;148.27;;;9.30;99.90;;;;;;5068094;28;20315;-51
2022/11/17 03:46:31;;;;;;;1294.17;203.67;;;9.30;99.90;;;;;;5069714;28;20317;-51
2022/11/17 03:49:06;;;;;;;1325.07;259.43;;;9.30;99.90;;;;;;5064067;28;20321;-52
2022/11/17 03:51:34;;;;;;;991.90;185.13;;;9.30;99.90;;;;;;5060969;28;20237;-51
2022/11/17 03:54:02;;;;;;;1817.60;357.87;;;9.40;99.90;;;;;;5068155;28;20252;-52
2022/11/17 03:56:37;;;;;;;1425.40;258.30;;;9.40;99.90;;;;;;5069468;28;20297;-51
2022/11/17 03:59:14;;;;;;;1999.90;796.20;;;9.30;99.90;;;;;;5068852;28;20223;-51
2022/11/17 04:01:43;;;;;;;1067.93;194.93;;;9.40;99.90;;;;;;5068453;28;20302;-51
2022/11/17 04:04:14;;;;;;;1999.90;866.80;;;9.30;99.90;;;;;;5068161;28;20221;-51
2022/11/17 04:06:42;;;;;;;1999.90;531.60;;;9.40;99.90;;;;;;5067350;28;20221;-51
2022/11/17 04:09:10;;;;;;;1999.90;819.60;;;9.40;99.90;;;;;;5068856;28;20327;-51
2022/11/17 04:17:11;;;;;;;1999.90;679.23;;;9.30;99.90;;;;;;5068950;28;20228;-51
2022/11/17 04:19:39;;;;;;;1999.90;673.37;;;9.30;99.90;;;;;;5055130;28;20255;-51
2022/11/17 04:22:07;;;;;;;1757.10;270.50;;;9.30;99.90;;;;;;5068163;28;20205;-51
2022/11/17 04:24:35;;;;;;;1999.90;387.13;;;9.20;99.90;;;;;;5068988;28;20324;-51
2022/11/17 04:29:49;;;;;;;1999.90;344.50;;;9.30;99.90;;;;;;5063887;28;20209;-51
2022/11/17 04:32:18;;;;;;;1999.90;621.00;;;9.30;99.90;;;;;;5058907;28;20212;-51
2022/11/17 04:34:47;;;;;;;1999.90;719.83;;;9.30;99.90;;;;;;5066586;28;20232;-51
2022/11/17 04:37:17;;;;;;;1999.90;645.73;;;9.30;99.90;;;;;;5068447;28;20233;-51
2022/11/17 04:39:45;;;;;;;1999.90;569.23;;;9.40;99.90;;;;;;5068472;28;20653;-51
2022/11/17 04:42:12;;;;;;;1999.90;330.60;;;9.30;99.90;;;;;;5068353;28;20291;-51
2022/11/17 04:44:40;;;;;;;1999.90;620.97;;;9.30;99.90;;;;;;5067566;28;20307;-51
2022/11/17 04:47:08;;;;;;;1245.07;249.77;;;9.20;99.90;;;;;;5068804;28;20316;-51
2022/11/17 04:49:38;;;;;;;407.43;104.20;;;9.20;99.90;;;;;;5068426;28;20327;-51
2022/11/17 04:52:06;;;;;;;1999.90;848.33;;;9.20;99.90;;;;;;5067598;28;20661;-51
2022/11/17 04:54:34;;;;;;;1999.90;964.93;;;9.20;99.90;;;;;;5068473;28;20303;-51
2022/11/17 04:57:02;;;;;;;1999.90;565.40;;;9.40;99.90;;;;;;5054899;28;20326;-51
2022/11/17 04:59:30;;;;;;;1999.90;433.43;;;9.40;99.90;;;;;;5067865;28;20311;-51
2022/11/17 05:01:58;;;;;;;1999.90;659.30;;;9.30;99.90;;;;;;5067529;28;20817;-51
2022/11/17 05:07:16;;;;;;;1999.90;425.10;;;9.20;99.90;;;;;;5054826;28;20296;-51
2022/11/17 05:09:44;;;;;;;1999.90;721.43;;;9.20;99.90;;;;;;5062351;28;20232;-51
2022/11/17 05:14:57;;;;;;;1999.90;673.20;;;9.10;99.90;;;;;;5056585;28;20297;-50
2022/11/17 05:17:24;;;;;;;1999.90;414.17;;;9.20;99.90;;;;;;5068293;28;20300;-51
2022/11/17 05:19:53;;;;;;;1727.50;272.93;;;9.30;99.90;;;;;;5067531;28;20292;-51
2022/11/17 05:25:09;;;;;;;1999.90;400.10;;;9.10;99.90;;;;;;5071074;28;20236;-51
2022/11/17 05:27:37;;;;;;;1999.90;749.93;;;9.20;99.90;;;;;;5071366;28;20201;-51
2022/11/17 05:30:07;;;;;;;1999.90;769.53;;;9.20;99.90;;;;;;5068178;28;20316;-51
2022/11/17 05:32:35;;;;;;;1669.77;248.03;;;9.20;99.90;;;;;;5069115;28;20242;-51
2022/11/17 05:35:04;;;;;;;1999.90;591.00;;;9.10;99.90;;;;;;5070710;28;20296;-51
2022/11/17 05:37:33;;;;;;;1999.90;366.70;;;9.30;99.90;;;;;;5071198;28;20244;-51
2022/11/17 05:40:01;;;;;;;793.10;135.47;;;9.20;99.90;;;;;;5071493;28;20209;-51
2022/11/17 05:42:29;;;;;;;1999.90;363.03;;;9.30;99.90;;;;;;5070918;28;20312;-51
2022/11/17 05:44:57;;;;;;;1999.90;632.40;;;9.30;99.90;;;;;;5071229;28;20209;-52
2022/11/17 05:47:25;;;;;;;1999.90;863.17;;;9.40;99.90;;;;;;5070905;28;20547;-51
2022/11/17 05:49:53;;;;;;;1999.90;697.73;;;9.40;99.90;;;;;;5071402;28;20317;-51
2022/11/17 05:52:21;;;;;;;1905.20;283.83;;;9.40;99.90;;;;;;5070432;28;20722;-51
2022/11/17 05:54:51;;;;;;;1999.90;477.90;;;9.40;99.90;;;;;;5071451;28;20232;-51
2022/11/17 05:57:28;;;;;;;1999.90;413.43;;;9.40;99.90;;;;;;5070741;28;20288;-52
2022/11/17 06:00:00;;;;;;;1999.90;937.97;;;9.40;99.90;;;;;;5071244;28;20228;-51
2022/11/17 06:02:36;;;;;;;1999.90;794.60;;;9.60;99.90;;;;;;5070329;28;20301;-51
2022/11/17 06:05:05;;;;;;;1999.90;423.10;;;9.60;99.90;;;;;;5070992;28;20332;-52
2022/11/17 06:07:35;;;;;;;1999.90;810.83;;;9.50;99.90;;;;;;5071028;28;20805;-51
2022/11/17 06:10:06;;;;;;;1999.90;692.87;;;9.50;99.90;;;;;;5070289;28;20301;-51
2022/11/17 06:12:34;;;;;;;1999.90;376.70;;;9.50;99.90;;;;;;5070408;28;20287;-51
2022/11/17 06:15:02;;;;;;;1999.90;499.57;;;9.40;99.90;;;;;;5070793;28;20292;-51
2022/11/17 06:17:34;;;;;;;1999.90;918.93;;;9.40;99.90;;;;;;5071081;28;20243;-51
2022/11/17 06:20:06;;;;;;;1999.90;458.23;;;9.50;99.90;;;;;;5063929;28;20279;-51
2022/11/17 06:22:35;;;;;;;1068.80;203.87;;;9.30;99.90;;;;;;5070401;28;20305;-52
2022/11/17 06:25:08;;;;;;;953.57;145.43;;;9.30;99.90;;;;;;5070512;28;20287;-52
2022/11/17 06:27:37;;;;;;;1999.90;541.63;;;9.30;99.90;;;;;;5070652;28;20201;-51
2022/11/17 06:30:06;;;;;;;1999.90;697.53;;;9.30;99.90;;;;;;5070354;28;20227;-52
2022/11/17 06:32:37;;;;;;;1999.90;429.60;;;9.30;99.90;;;;;;5069539;28;20214;-51
2022/11/17 06:35:07;;;;;;;1959.77;338.93;;;9.30;99.90;;;;;;5068836;28;20213;-53
2022/11/17 06:37:35;;;;;;;1999.90;389.80;;;9.20;99.90;;;;;;5070233;28;20209;-52
2022/11/17 06:40:03;;;;;;;1999.90;518.30;;;9.20;99.90;;;;;;5069043;28;20674;-52
2022/11/17 06:45:18;;;;;;;1758.10;314.33;;;9.40;99.90;;;;;;5069690;28;20201;-51
2022/11/17 06:47:46;;;;;;;616.13;109.73;;;9.50;99.90;;;;;;5070326;28;20292;-52
2022/11/17 06:50:14;;;;;;;1999.90;487.67;;;9.60;99.90;;;;;;5069583;28;20318;-52
2022/11/17 06:52:42;;;;;;;1999.90;688.60;;;9.50;99.90;;;;;;5069605;28;20296;-53
2022/11/17 06:55:11;;;;;;;1957.73;331.13;;;9.50;99.90;;;;;;5070212;28;20292;-51
2022/11/17 06:57:40;;;;;;;1999.90;563.50;;;9.50;99.90;;;;;;5070398;28;20296;-51
2022/11/17 07:00:09;;;;;;;662.57;142.73;;;9.40;99.90;;;;;;5069312;28;20298;-52
2022/11/17 07:02:37;;;;;;;1207.47;299.23;;;9.30;99.90;;;;;;5069647;28;20200;-51
2022/11/17 07:05:06;;;;;;;1999.90;614.57;;;9.30;99.90;;;;;;5069482;28;20205;-51
2022/11/17 07:07:34;;;;;;;1999.90;592.67;;;9.40;99.90;;;;;;5056943;28;20228;-51
2022/11/17 07:10:04;;;;;;;1999.90;529.73;;;9.50;99.90;;;;;;5069232;28;20260;-51
2022/11/17 07:12:34;;;;;;;1196.10;193.47;;;9.60;99.90;;;;;;5069101;28;20212;-52
2022/11/17 07:15:04;;;;;;;1854.17;273.90;;;9.50;99.90;;;;;;5060026;28;20655;-52
2022/11/17 07:17:32;;;;;;;194.87;43.50;;;9.50;99.90;;;;;;5070058;28;20275;-51
2022/11/17 07:20:00;;;;;;;541.43;96.53;;;9.60;99.90;;;;;;5069339;28;20232;-51
2022/11/17 07:22:28;;;;;;;1999.90;452.13;;;9.60;99.90;;;;;;5069163;28;20266;-51
2022/11/17 07:24:56;;;;;;;1999.90;728.90;;;9.60;99.90;;;;;;5069367;28;20632;-51
2022/11/17 07:27:24;;;;;;;1999.90;734.97;;;9.60;99.90;;;;;;5069287;28;20300;-51
2022/11/17 07:29:52;;;;;;;580.60;150.87;;;9.70;99.90;;;;;;5069704;28;20325;-51
2022/11/17 07:32:22;;;;;;;1999.90;381.93;;;9.70;99.90;;;;;;5068867;28;20684;-51
2022/11/17 07:34:50;;;;;;;731.73;127.17;;;9.60;99.90;;;;;;5068659;28;20215;-51
2022/11/17 07:37:18;;;;;;;1152.37;215.70;;;9.60;99.90;;;;;;5062076;28;20287;-52
2022/11/17 07:39:46;;;;;;;1999.90;452.57;;;9.60;99.90;;;;;;5089794;28;20291;-51
2022/11/17 07:42:14;;;;;;;539.77;186.23;;;9.70;99.90;;;;;;5089071;28;20744;-51
2022/11/17 07:44:42;;;;;;;1190.37;202.07;;;9.60;99.90;;;;;;5070865;28;20232;-51
2022/11/17 07:47:10;;;;;;;1999.90;468.00;;;9.70;99.90;;;;;;5084521;28;20288;-51
2022/11/17 07:49:40;;;;;;;1859.83;321.80;;;9.70;99.90;;;;;;5088995;28;20232;-51
2022/11/17 07:52:08;;;;;;;1999.90;999.90;;;9.70;99.90;;;;;;5081990;28;20303;-51
2022/11/17 07:54:36;;;;;;;1999.90;573.87;;;9.80;99.90;;;;;;5062771;28;20859;-51
2022/11/17 07:57:05;;;;;;;1999.90;676.10;;;9.80;99.90;;;;;;5068687;28;20753;-52
2022/11/17 07:59:33;;;;;;;1999.90;497.43;;;9.80;99.90;;;;;;5068995;28;20293;-52
2022/11/17 08:02:01;;;;;;;1981.23;301.97;;;9.80;99.90;;;;;;5067397;28;20204;-51
2022/11/17 08:04:29;;;;;;;1999.90;482.23;;;9.80;99.90;;;;;;5067699;28;20261;-51
2022/11/17 08:06:58;;;;;;;817.40;175.23;;;9.70;99.90;;;;;;5067824;28;20306;-52
2022/11/17 08:09:27;;;;;;;1287.03;292.00;;;9.70;99.90;;;;;;5068457;28;20256;-52
2022/11/17 08:11:56;;;;;;;1999.90;420.03;;;9.60;99.90;;;;;;5067197;28;20740;-52
2022/11/17 08:14:24;;;;;;;1999.90;334.33;;;9.60;99.90;;;;;;5067264;28;20233;-52
2022/11/17 08:16:52;;;;;;;1999.90;443.43;;;9.60;99.90;;;;;;5054619;28;20298;-52
2022/11/17 08:19:20;;;;;;;1999.90;391.80;;;9.60;99.90;;;;;;5068132;28;20303;-51
2022/11/17 08:21:49;;;;;;;1056.33;272.17;;;9.60;99.90;;;;;;5068088;28;20234;-52
2022/11/17 08:24:19;;;;;;;1999.90;414.40;;;9.70;99.90;;;;;;5063990;28;20256;-51
2022/11/17 08:26:47;;;;;;;1228.03;245.10;;;9.60;99.90;;;;;;5068942;28;20295;-51
2022/11/17 08:29:15;;;;;;;823.47;124.67;;;9.70;99.90;;;;;;5068397;28;20665;-51
2022/11/17 08:31:45;;;;;;;645.10;167.80;;;9.70;99.90;;;;;;5068462;28;20247;-51
2022/11/17 08:34:13;;;;;;;556.40;102.87;;;9.70;99.90;;;;;;5067770;28;20229;-51
2022/11/17 08:36:41;;;;;;;594.67;122.93;;;9.70;99.90;;;;;;5068526;28;20292;-51
2022/11/17 08:39:09;;;;;;;554.20;95.73;;;9.70;99.90;;;;;;5068438;28;20251;-51
2022/11/17 08:41:38;;;;;;;664.77;114.77;;;9.80;99.90;;;;;;5068297;28;20292;-51
2022/11/17 08:44:06;;;;;;;1276.23;240.13;;;9.80;99.90;;;;;;5067942;28;20658;-51
2022/11/17 08:46:34;;;;;;;710.43;160.90;;;9.80;99.90;;;;;;5068549;28;20291;-51
2022/11/17 08:49:03;;;;;;;817.37;167.90;;;9.80;99.90;;;;;;5068318;28;20205;-52
2022/11/17 08:51:32;;;;;;;744.30;179.10;;;9.90;99.90;;;;;;5067758;28;20749;-51
2022/11/17 08:54:00;;;;;;;1322.37;246.10;;;9.90;99.90;;;;;;5067943;28;20307;-52
2022/11/17 08:56:28;;;;;;;1116.10;239.77;;;9.80;99.90;;;;;;5068585;28;20236;-52
2022/11/17 08:58:57;;;;;;;1999.90;541.90;;;9.80;99.90;;;;;;5072073;28;20243;-51
2022/11/17 09:01:25;;;;;;;1639.23;294.63;;;9.80;99.90;;;;;;5072442;28;20314;-51
2022/11/17 09:03:54;;;;;;;393.30;100.30;;;9.90;99.90;;;;;;5067223;28;20720;-52
2022/11/17 09:06:22;;;;;;;790.07;250.33;;;10.00;99.90;;;;;;5067019;28;20250;-52
2022/11/17 09:08:53;;;;;;;1511.63;312.37;;;10.00;99.90;;;;;;5066080;28;20298;-51
2022/11/17 09:11:21;;;;;;;1486.17;243.70;;;10.00;99.90;;;;;;5054093;28;22123;-51
2022/11/17 09:13:49;;;;;;;1999.90;403.37;;;10.00;99.90;;;;;;5065960;28;20233;-52
2022/11/17 09:16:19;;;;;;;737.07;136.60;;;10.10;99.90;;;;;;5071265;28;20254;-51
2022/11/17 09:18:47;;;;;;;775.87;181.97;;;10.10;99.90;;;;;;5071339;28;20681;-52
2022/11/17 09:21:16;;;;;;;879.33;171.83;;;10.00;99.90;;;;;;5071140;28;20216;-52
2022/11/17 09:23:44;;;;;;;1519.60;231.23;;;9.90;99.90;;;;;;5067607;28;20316;-51
2022/11/17 09:26:14;;;;;;;1999.90;452.20;;;9.90;99.90;;;;;;5071325;28;20297;-52
2022/11/17 09:28:42;;;;;;;1324.30;285.87;;;9.90;99.90;;;;;;5060199;28;20627;-51
2022/11/17 09:31:13;;;;;;;365.33;56.60;;;9.90;99.90;;;;;;5071127;28;20344;-52
2022/11/17 09:33:42;;;;;;;1717.40;247.90;;;9.90;99.90;;;;;;5070512;28;20232;-52
2022/11/17 09:36:12;;;;;;;678.87;138.30;;;9.90;99.90;;;;;;5070218;28;20254;-52
2022/11/17 09:38:40;;;;;;;806.63;125.10;;;10.00;99.90;;;;;;5070719;28;20394;-52
2022/11/17 09:41:20;;;;;;;1026.43;268.87;;;10.00;99.90;;;;;;5070789;28;20197;-52
2022/11/17 09:43:53;;;;;;;1586.80;230.50;;;10.00;99.90;;;;;;5070434;28;20780;-52
2022/11/17 09:46:27;;;;;;;662.43;141.90;;;10.00;99.90;;;;;;5062352;28;20240;-52
2022/11/17 09:49:04;;;;;;;683.80;166.87;;;10.00;99.90;;;;;;5070262;28;20245;-51
2022/11/17 09:51:35;;;;;;;713.30;239.57;;;10.10;99.90;;;;;;5062929;28;20309;-51
2022/11/17 09:54:12;;;;;;;507.47;101.07;;;10.10;99.90;;;;;;5069191;28;20224;-52
2022/11/17 09:56:40;;;;;;;287.57;71.33;;;10.10;99.90;;;;;;5071047;28;20291;-52
2022/11/17 09:59:12;;;;;;;370.77;106.63;;;10.20;99.90;;;;;;5070769;28;20235;-51
2022/11/17 10:01:40;;;;;;;474.27;105.80;;;10.20;99.90;;;;;;5061351;28;20232;-53
2022/11/17 10:04:15;;;;;;;361.20;93.13;;;10.20;99.90;;;;;;5070198;28;20275;-52
2022/11/17 10:06:46;;;;;;;24.30;17.53;;;10.20;99.90;;;;;;5060838;28;20496;-52
2022/11/17 10:09:21;;;;;;;114.70;31.63;;;10.30;99.90;;;;;;5070327;28;20204;-52
2022/11/17 10:11:58;;;;;;;234.93;57.13;;;10.30;99.90;;;;;;5060308;28;20610;-52
2022/11/17 10:14:28;;;;;;;88.77;25.77;;;10.30;99.90;;;;;;5066477;28;20307;-53
2022/11/17 10:16:58;;;;;;;282.77;56.93;;;10.30;99.90;;;;;;5064396;28;20739;-52
2022/11/17 10:19:29;;;;;;;99.30;31.47;;;10.30;99.90;;;;;;5070131;28;20209;-52
2022/11/17 10:22:14;;;;;;;829.23;203.97;;;10.30;99.90;;;;;;5070436;28;20205;-52
2022/11/17 10:24:46;;;;;;;441.70;90.47;;;10.30;99.90;;;;;;5071095;28;20294;-52
2022/11/17 10:27:22;;;;;;;27.17;15.30;;;10.40;99.90;;;;;;5060986;28;20213;-52
2022/11/17 10:29:59;;;;;;;237.33;57.47;;;10.40;99.90;;;;;;5061892;28;20307;-52
2022/11/17 10:32:27;;;;;;;66.07;17.70;;;10.40;99.90;;;;;;5070003;28;20224;-52
2022/11/17 10:35:12;;;;;;;492.27;150.63;;;10.40;99.90;;;;;;5069224;28;20219;-52
2022/11/17 10:37:51;;;;;;;37.33;17.93;;;10.40;99.90;;;;;;5070818;28;20292;-52
2022/11/17 10:40:21;;;;;;;380.00;105.93;;;10.40;99.90;;;;;;5084957;28;20220;-52
2022/11/17 10:43:20;;;;;;;355.90;101.27;;;10.50;99.90;;;;;;5068511;28;20323;-52
2022/11/17 10:45:51;;;;;;;351.37;100.53;;;10.50;99.90;;;;;;5063908;28;20200;-52
2022/11/17 10:48:25;;;;;;;721.60;176.53;;;10.50;99.90;;;;;;5083476;28;20246;-52
2022/11/17 10:50:56;;;;;;;42.50;14.90;;;10.60;99.90;;;;;;5084357;28;20311;-51
2022/11/17 10:53:35;;;;;;;774.27;145.43;;;10.60;99.90;;;;;;5082789;28;20315;-51
2022/11/17 10:56:14;;;;;;;159.73;55.90;;;10.60;99.90;;;;;;5073836;28;20229;-51
2022/11/17 10:58:58;;;;;;;192.03;40.20;;;10.60;99.90;;;;;;5088336;28;20693;-51
2022/11/17 11:01:31;;;;;;;424.83;117.00;;;10.70;99.90;;;;;;5090045;28;20748;-51
2022/11/17 11:03:59;;;;;;;1385.40;340.40;;;10.70;99.90;;;;;;5089008;28;20232;-53
2022/11/17 11:06:30;;;;;;;1770.70;286.50;;;10.80;99.90;;;;;;5089939;28;20299;-53
2022/11/17 11:09:03;;;;;;;601.27;120.33;;;10.80;99.90;;;;;;5075786;28;20220;-51
2022/11/17 11:11:42;;;;;;;1265.43;227.73;;;10.80;99.90;;;;;;5082185;28;20242;-51
2022/11/17 11:14:20;;;;;;;1189.63;352.73;;;10.90;99.90;;;;;;5080903;28;20280;-52
2022/11/17 11:16:49;;;;;;;1849.13;386.57;;;10.90;99.90;;;;;;5062162;28;20215;-52
2022/11/17 11:19:19;;;;;;;842.00;215.90;;;11.00;99.90;;;;;;5068424;28;20232;-52
2022/11/17 11:22:20;;;;;;;1943.27;302.83;;;11.10;99.90;;;;;;5068278;28;20232;-52
2022/11/17 11:24:54;;;;;;;1168.30;289.00;;;11.00;99.90;;;;;;5068947;28;20232;-52
2022/11/17 11:27:34;;;;;;;1282.77;229.03;;;11.00;99.90;;;;;;5068302;28;20290;-52
2022/11/17 11:30:04;;;;;;;1107.33;264.77;;;11.00;99.90;;;;;;5068152;28;20640;-52
2022/11/17 11:32:45;;;;;;;337.93;72.53;;;11.10;99.90;;;;;;5066228;28;20322;-52
2022/11/17 11:35:36;;;;;;;884.17;200.63;;;11.20;99.90;;;;;;5068906;28;20233;-51
2022/11/17 11:38:16;;;;;;;439.60;120.17;;;11.30;99.90;;;;;;5068785;28;20292;-52
2022/11/17 11:40:53;;;;;;;1437.53;304.13;;;11.30;99.90;;;;;;5052449;28;20251;-52
2022/11/17 11:43:33;;;;;;;1369.70;259.97;;;11.30;99.90;;;;;;5062100;28;20311;-52
2022/11/17 11:46:08;;;;;;;1523.33;245.87;;;11.30;99.90;;;;;;5069014;28;20610;-52
2022/11/17 11:48:39;;;;;;;1999.90;317.20;;;11.30;99.90;;;;;;5068486;28;20232;-51
2022/11/17 11:51:13;;;;;;;1519.47;264.23;;;11.30;99.90;;;;;;5069349;28;20288;-52
2022/11/17 11:53:51;;;;;;;1290.47;239.67;;;11.30;99.90;;;;;;5067996;28;20939;-51
2022/11/17 11:56:24;;;;;;;1279.57;248.37;;;11.50;99.90;;;;;;5069131;28;20205;-51
2022/11/17 11:58:58;;;;;;;1746.43;333.10;;;11.60;99.90;;;;;;5067736;28;20673;-52
2022/11/17 12:01:28;;;;;;;1430.83;363.80;;;11.70;99.90;;;;;;5068246;28;20202;-52
2022/11/17 12:04:13;;;;;;;1301.40;307.20;;;11.80;99.90;;;;;;5067070;28;20363;-53
2022/11/17 12:06:48;;;;;;;1101.53;226.93;;;11.80;99.90;;;;;;5069132;28;20689;-52
2022/11/17 12:09:49;;;;;;;558.70;137.07;;;11.90;99.90;;;;;;5068411;28;20956;-52
2022/11/17 12:12:20;;;;;;;1999.90;685.87;;;12.00;99.90;;;;;;5068103;28;20308;-52
2022/11/17 12:15:16;;;;;;;1048.27;210.67;;;11.90;99.90;;;;;;5061589;28;20304;-51
2022/11/17 12:17:58;;;;;;;1999.90;555.10;;;11.80;99.90;;;;;;5069465;28;20228;-52
2022/11/17 12:20:57;;;;;;;1825.00;316.77;;;11.70;99.90;;;;;;5057422;28;20232;-52
2022/11/17 12:23:57;;;;;;;760.83;147.03;;;11.70;99.90;;;;;;5005830;28;20218;-50
2022/11/17 12:26:28;;;;;;;1311.70;255.10;;;11.70;99.90;;;;;;5068754;28;20292;-51
2022/11/17 12:29:30;;;;;;;1999.90;489.30;;;11.70;99.90;;;;;;5069488;28;20292;-53
2022/11/17 12:32:00;;;;;;;1325.37;223.10;;;11.60;99.90;;;;;;5061983;28;20238;-53
2022/11/17 12:34:34;;;;;;;1287.90;222.47;;;11.50;99.90;;;;;;5070972;28;20316;-53
2022/11/17 12:37:20;;;;;;;1713.10;284.63;;;11.40;99.90;;;;;;5070647;28;20205;-52
2022/11/17 12:40:04;;;;;;;1999.90;704.87;;;11.30;99.90;;;;;;5073074;28;20211;-53
2022/11/17 12:42:34;;;;;;;1361.93;289.33;;;11.20;99.90;;;;;;5059188;28;20330;-52
2022/11/17 12:45:08;;;;;;;363.60;56.80;;;11.10;99.90;;;;;;5068730;28;20243;-52
2022/11/17 12:47:38;;;;;;;1320.07;325.33;;;11.20;99.90;;;;;;5072101;28;20315;-52
2022/11/17 12:50:41;;;;;;;1345.00;252.43;;;11.10;99.90;;;;;;5072294;28;20220;-51
2022/11/17 12:53:33;;;;;;;262.70;80.23;;;11.10;99.90;;;;;;5066581;28;20582;-52
2022/11/17 12:56:33;;;;;;;1210.90;287.57;;;11.00;99.90;;;;;;5066819;28;20643;-53
2022/11/17 12:59:26;;;;;;;643.70;171.47;;;10.90;99.90;;;;;;5069367;28;20236;-52
2022/11/17 13:02:04;;;;;;;178.87;52.13;;;10.90;99.90;;;;;;5071952;28;20201;-52
2022/11/17 13:04:40;;;;;;;120.50;37.63;;;10.80;99.90;;;;;;5071490;28;20259;-52